sensor_id;sensor_type;location;lat;lon;timestamp;pressure;altitude;pressure_sealevel;temperature;humidity
59608;BME280;45426;44.726;10.390;2023-09-07T00:00:48;101039.09;;;21.41;100.00
59608;BME280;45426;44.726;10.390;2023-09-07T00:03:14;101040.28;;;21.32;100.00
59608;BME280;45426;44.726;10.390;2023-09-07T00:05:39;101034.75;;;21.40;100.00
59608;BME280;45426;44.726;10.390;2023-09-07T00:08:05;101039.75;;;20.98;100.00
59608;BME280;45426;44.726;10.390;2023-09-07T00:10:32;101031.91;;;21.11;100.00
59608;BME280;45426;44.726;10.390;2023-09-07T00:13:01;101029.94;;;21.15;100.00
59608;BME280;45426;44.726;10.390;2023-09-07T00:15:27;101019.72;;;21.19;100.00
59608;BME280;45426;44.726;10.390;2023-09-07T00:17:53;101024.84;;;20.44;100.00
59608;BME280;45426;44.726;10.390;2023-09-07T00:20:19;101016.75;;;20.65;100.00
59608;BME280;45426;44.726;10.390;2023-09-07T00:22:44;101024.84;;;21.13;100.00
59608;BME280;45426;44.726;10.390;2023-09-07T00:25:10;101022.47;;;21.16;100.00
59608;BME280;45426;44.726;10.390;2023-09-07T00:27:35;101026.91;;;21.45;100.00
59608;BME280;45426;44.726;10.390;2023-09-07T00:30:02;101025.22;;;21.16;100.00
59608;BME280;45426;44.726;10.390;2023-09-07T00:32:29;101024.25;;;20.72;100.00
59608;BME280;45426;44.726;10.390;2023-09-07T00:34:55;101020.41;;;20.94;100.00
59608;BME280;45426;44.726;10.390;2023-09-07T00:37:20;101024.63;;;20.70;100.00
59608;BME280;45426;44.726;10.390;2023-09-07T00:39:46;101021.94;;;20.81;100.00
59608;BME280;45426;44.726;10.390;2023-09-07T00:42:11;101012.38;;;20.64;100.00
59608;BME280;45426;44.726;10.390;2023-09-07T00:44:37;101018.06;;;21.07;100.00
59608;BME280;45426;44.726;10.390;2023-09-07T00:47:03;101026.25;;;20.79;100.00
59608;BME280;45426;44.726;10.390;2023-09-07T00:49:30;101023.69;;;21.32;100.00
59608;BME280;45426;44.726;10.390;2023-09-07T00:51:55;101011.91;;;21.50;100.00
59608;BME280;45426;44.726;10.390;2023-09-07T00:54:21;101014.53;;;21.03;100.00
59608;BME280;45426;44.726;10.390;2023-09-07T00:56:46;101003.09;;;21.08;100.00
59608;BME280;45426;44.726;10.390;2023-09-07T00:59:13;101020.25;;;20.62;100.00
59608;BME280;45426;44.726;10.390;2023-09-07T01:01:38;101016.66;;;20.54;100.00
59608;BME280;45426;44.726;10.390;2023-09-07T01:04:04;101019.78;;;20.49;100.00
59608;BME280;45426;44.726;10.390;2023-09-07T01:06:32;101020.94;;;20.45;100.00
59608;BME280;45426;44.726;10.390;2023-09-07T01:09:03;101015.75;;;21.24;100.00
59608;BME280;45426;44.726;10.390;2023-09-07T01:11:36;101005.47;;;21.06;100.00
59608;BME280;45426;44.726;10.390;2023-09-07T01:14:02;101014.66;;;21.54;100.00
59608;BME280;45426;44.726;10.390;2023-09-07T01:16:30;101012.28;;;21.48;100.00
59608;BME280;45426;44.726;10.390;2023-09-07T01:18:56;101022.88;;;21.21;100.00
59608;BME280;45426;44.726;10.390;2023-09-07T01:21:22;101011.06;;;21.35;100.00
59608;BME280;45426;44.726;10.390;2023-09-07T01:23:48;101016.91;;;21.05;100.00
59608;BME280;45426;44.726;10.390;2023-09-07T01:26:14;101012.50;;;20.89;100.00
59608;BME280;45426;44.726;10.390;2023-09-07T01:28:39;101010.22;;;21.17;100.00
59608;BME280;45426;44.726;10.390;2023-09-07T01:31:05;101014.59;;;21.25;100.00
59608;BME280;45426;44.726;10.390;2023-09-07T01:33:31;101010.25;;;21.27;100.00
59608;BME280;45426;44.726;10.390;2023-09-07T01:35:57;101008.59;;;20.98;100.00
59608;BME280;45426;44.726;10.390;2023-09-07T01:38:22;101018.88;;;21.11;100.00
59608;BME280;45426;44.726;10.390;2023-09-07T01:40:48;101011.75;;;21.03;100.00
59608;BME280;45426;44.726;10.390;2023-09-07T01:43:13;101023.22;;;21.12;100.00
59608;BME280;45426;44.726;10.390;2023-09-07T01:45:39;101020.44;;;21.05;100.00
59608;BME280;45426;44.726;10.390;2023-09-07T01:48:08;101012.53;;;21.00;100.00
59608;BME280;45426;44.726;10.390;2023-09-07T01:50:35;101013.38;;;21.15;100.00
59608;BME280;45426;44.726;10.390;2023-09-07T01:53:01;101023.56;;;20.93;100.00
59608;BME280;45426;44.726;10.390;2023-09-07T01:55:28;101020.69;;;20.68;100.00
59608;BME280;45426;44.726;10.390;2023-09-07T01:57:53;101033.50;;;20.39;100.00
59608;BME280;45426;44.726;10.390;2023-09-07T02:00:19;101040.00;;;20.64;100.00
59608;BME280;45426;44.726;10.390;2023-09-07T02:02:44;101039.84;;;20.43;100.00
59608;BME280;45426;44.726;10.390;2023-09-07T02:05:10;101039.00;;;20.39;100.00
59608;BME280;45426;44.726;10.390;2023-09-07T02:07:35;101048.03;;;20.28;100.00
59608;BME280;45426;44.726;10.390;2023-09-07T02:10:02;101035.50;;;20.42;100.00
59608;BME280;45426;44.726;10.390;2023-09-07T02:12:28;101042.28;;;20.55;100.00
59608;BME280;45426;44.726;10.390;2023-09-07T02:14:55;101046.91;;;20.40;100.00
59608;BME280;45426;44.726;10.390;2023-09-07T02:17:20;101044.63;;;20.53;100.00
59608;BME280;45426;44.726;10.390;2023-09-07T02:19:46;101042.19;;;20.44;100.00
59608;BME280;45426;44.726;10.390;2023-09-07T02:22:11;101040.88;;;20.20;100.00
59608;BME280;45426;44.726;10.390;2023-09-07T02:24:37;101041.19;;;20.08;100.00
59608;BME280;45426;44.726;10.390;2023-09-07T02:27:03;101030.56;;;20.13;100.00
59608;BME280;45426;44.726;10.390;2023-09-07T02:29:28;101034.81;;;20.00;100.00
59608;BME280;45426;44.726;10.390;2023-09-07T02:31:53;101030.75;;;19.83;100.00
59608;BME280;45426;44.726;10.390;2023-09-07T02:34:19;101032.72;;;20.42;100.00
59608;BME280;45426;44.726;10.390;2023-09-07T02:36:44;101027.91;;;20.24;100.00
59608;BME280;45426;44.726;10.390;2023-09-07T02:39:10;101025.44;;;20.12;100.00
59608;BME280;45426;44.726;10.390;2023-09-07T02:41:37;101037.00;;;19.80;100.00
59608;BME280;45426;44.726;10.390;2023-09-07T02:44:04;101035.41;;;19.38;100.00
59608;BME280;45426;44.726;10.390;2023-09-07T02:46:29;101046.44;;;18.77;100.00
59608;BME280;45426;44.726;10.390;2023-09-07T02:48:56;101038.69;;;19.17;100.00
59608;BME280;45426;44.726;10.390;2023-09-07T02:51:23;101042.53;;;18.78;100.00
59608;BME280;45426;44.726;10.390;2023-09-07T02:53:49;101048.91;;;18.56;100.00
59608;BME280;45426;44.726;10.390;2023-09-07T02:56:14;101040.19;;;18.50;100.00
59608;BME280;45426;44.726;10.390;2023-09-07T02:58:40;101034.97;;;18.72;100.00
59608;BME280;45426;44.726;10.390;2023-09-07T03:01:06;101039.25;;;18.69;100.00
59608;BME280;45426;44.726;10.390;2023-09-07T03:03:35;101040.94;;;18.77;100.00
59608;BME280;45426;44.726;10.390;2023-09-07T03:06:11;101036.56;;;19.37;100.00
59608;BME280;45426;44.726;10.390;2023-09-07T03:08:36;101042.59;;;19.50;100.00
59608;BME280;45426;44.726;10.390;2023-09-07T03:11:05;101045.56;;;19.34;100.00
59608;BME280;45426;44.726;10.390;2023-09-07T03:13:31;101047.03;;;18.90;100.00
59608;BME280;45426;44.726;10.390;2023-09-07T03:15:57;101045.28;;;19.09;100.00
59608;BME280;45426;44.726;10.390;2023-09-07T03:18:23;101048.91;;;19.50;100.00
59608;BME280;45426;44.726;10.390;2023-09-07T03:20:50;101051.06;;;19.68;100.00
59608;BME280;45426;44.726;10.390;2023-09-07T03:23:15;101056.69;;;19.07;100.00
59608;BME280;45426;44.726;10.390;2023-09-07T03:25:41;101044.41;;;18.44;100.00
59608;BME280;45426;44.726;10.390;2023-09-07T03:28:06;101052.28;;;18.72;100.00
59608;BME280;45426;44.726;10.390;2023-09-07T03:30:33;101050.38;;;18.50;100.00
59608;BME280;45426;44.726;10.390;2023-09-07T03:32:58;101040.53;;;19.39;100.00
59608;BME280;45426;44.726;10.390;2023-09-07T03:35:24;101049.59;;;19.77;100.00
59608;BME280;45426;44.726;10.390;2023-09-07T03:37:49;101045.78;;;19.52;100.00
59608;BME280;45426;44.726;10.390;2023-09-07T03:40:15;101047.69;;;19.48;100.00
59608;BME280;45426;44.726;10.390;2023-09-07T03:42:40;101043.59;;;19.31;100.00
59608;BME280;45426;44.726;10.390;2023-09-07T03:45:06;101046.75;;;18.99;100.00
59608;BME280;45426;44.726;10.390;2023-09-07T03:47:32;101049.78;;;19.24;100.00
59608;BME280;45426;44.726;10.390;2023-09-07T03:49:58;101048.38;;;19.37;100.00
59608;BME280;45426;44.726;10.390;2023-09-07T03:52:24;101037.94;;;19.20;100.00
59608;BME280;45426;44.726;10.390;2023-09-07T03:54:52;101041.31;;;19.40;100.00
59608;BME280;45426;44.726;10.390;2023-09-07T03:57:19;101042.91;;;19.41;100.00
59608;BME280;45426;44.726;10.390;2023-09-07T03:59:45;101046.06;;;19.39;100.00
59608;BME280;45426;44.726;10.390;2023-09-07T04:02:10;101046.19;;;19.54;100.00
59608;BME280;45426;44.726;10.390;2023-09-07T04:04:36;101035.66;;;19.26;100.00
59608;BME280;45426;44.726;10.390;2023-09-07T04:07:01;101046.03;;;19.06;100.00
59608;BME280;45426;44.726;10.390;2023-09-07T04:09:27;101036.28;;;19.12;100.00
59608;BME280;45426;44.726;10.390;2023-09-07T04:11:52;101048.13;;;19.16;100.00
59608;BME280;45426;44.726;10.390;2023-09-07T04:14:18;101043.34;;;19.47;100.00
59608;BME280;45426;44.726;10.390;2023-09-07T04:16:43;101047.03;;;19.62;100.00
59608;BME280;45426;44.726;10.390;2023-09-07T04:19:08;101052.25;;;19.33;100.00
59608;BME280;45426;44.726;10.390;2023-09-07T04:21:36;101052.19;;;19.26;100.00
59608;BME280;45426;44.726;10.390;2023-09-07T04:24:01;101049.56;;;19.36;100.00
59608;BME280;45426;44.726;10.390;2023-09-07T04:26:27;101049.75;;;19.20;100.00
59608;BME280;45426;44.726;10.390;2023-09-07T04:28:52;101052.50;;;18.87;100.00
59608;BME280;45426;44.726;10.390;2023-09-07T04:31:18;101050.44;;;18.53;100.00
59608;BME280;45426;44.726;10.390;2023-09-07T04:33:43;101039.38;;;18.50;100.00
59608;BME280;45426;44.726;10.390;2023-09-07T04:36:10;101044.88;;;18.50;100.00
59608;BME280;45426;44.726;10.390;2023-09-07T04:38:36;101046.78;;;18.72;100.00
59608;BME280;45426;44.726;10.390;2023-09-07T04:41:08;101052.38;;;18.79;100.00
59608;BME280;45426;44.726;10.390;2023-09-07T04:43:34;101046.16;;;18.83;100.00
59608;BME280;45426;44.726;10.390;2023-09-07T04:46:00;101050.28;;;18.69;100.00
59608;BME280;45426;44.726;10.390;2023-09-07T04:48:25;101056.44;;;18.86;100.00
59608;BME280;45426;44.726;10.390;2023-09-07T04:51:06;101054.09;;;18.88;100.00
59608;BME280;45426;44.726;10.390;2023-09-07T04:53:35;101053.38;;;18.94;100.00
59608;BME280;45426;44.726;10.390;2023-09-07T04:56:02;101057.44;;;19.04;100.00
59608;BME280;45426;44.726;10.390;2023-09-07T04:58:28;101062.97;;;19.08;100.00
59608;BME280;45426;44.726;10.390;2023-09-07T05:00:53;101067.03;;;19.17;100.00
59608;BME280;45426;44.726;10.390;2023-09-07T05:03:19;101062.31;;;19.18;100.00
59608;BME280;45426;44.726;10.390;2023-09-07T05:05:44;101065.53;;;18.63;100.00
59608;BME280;45426;44.726;10.390;2023-09-07T05:08:10;101067.81;;;18.57;100.00
59608;BME280;45426;44.726;10.390;2023-09-07T05:10:37;101065.84;;;18.58;100.00
59608;BME280;45426;44.726;10.390;2023-09-07T05:13:03;101063.19;;;18.92;100.00
59608;BME280;45426;44.726;10.390;2023-09-07T05:15:28;101068.28;;;18.90;100.00
59608;BME280;45426;44.726;10.390;2023-09-07T05:17:57;101072.44;;;18.80;100.00
59608;BME280;45426;44.726;10.390;2023-09-07T05:20:23;101070.25;;;18.89;100.00
59608;BME280;45426;44.726;10.390;2023-09-07T05:22:48;101073.50;;;18.98;100.00
59608;BME280;45426;44.726;10.390;2023-09-07T05:25:14;101068.66;;;19.22;100.00
59608;BME280;45426;44.726;10.390;2023-09-07T05:27:39;101073.06;;;18.96;100.00
59608;BME280;45426;44.726;10.390;2023-09-07T05:30:05;101076.63;;;19.31;100.00
59608;BME280;45426;44.726;10.390;2023-09-07T05:32:31;101075.78;;;19.23;100.00
59608;BME280;45426;44.726;10.390;2023-09-07T05:34:57;101074.66;;;18.97;100.00
59608;BME280;45426;44.726;10.390;2023-09-07T05:37:22;101068.09;;;19.43;100.00
59608;BME280;45426;44.726;10.390;2023-09-07T05:39:47;101071.13;;;19.31;100.00
59608;BME280;45426;44.726;10.390;2023-09-07T05:42:14;101082.38;;;19.52;100.00
59608;BME280;45426;44.726;10.390;2023-09-07T05:44:39;101078.47;;;19.53;100.00
59608;BME280;45426;44.726;10.390;2023-09-07T05:47:05;101075.22;;;20.26;100.00
59608;BME280;45426;44.726;10.390;2023-09-07T05:49:31;101083.88;;;19.80;100.00
59608;BME280;45426;44.726;10.390;2023-09-07T05:51:56;101082.94;;;19.69;100.00
59608;BME280;45426;44.726;10.390;2023-09-07T05:54:22;101079.25;;;19.91;100.00
59608;BME280;45426;44.726;10.390;2023-09-07T05:56:47;101083.84;;;19.76;100.00
59608;BME280;45426;44.726;10.390;2023-09-07T05:59:13;101077.09;;;20.15;100.00
59608;BME280;45426;44.726;10.390;2023-09-07T06:01:39;101079.66;;;19.93;100.00
59608;BME280;45426;44.726;10.390;2023-09-07T06:04:05;101087.59;;;19.98;100.00
59608;BME280;45426;44.726;10.390;2023-09-07T06:06:31;101085.38;;;20.15;100.00
59608;BME280;45426;44.726;10.390;2023-09-07T06:08:56;101076.97;;;20.52;100.00
59608;BME280;45426;44.726;10.390;2023-09-07T06:11:24;101077.38;;;20.54;100.00
59608;BME280;45426;44.726;10.390;2023-09-07T06:13:49;101076.50;;;21.09;100.00
59608;BME280;45426;44.726;10.390;2023-09-07T06:16:15;101079.06;;;21.65;100.00
59608;BME280;45426;44.726;10.390;2023-09-07T06:18:40;101075.16;;;22.02;100.00
59608;BME280;45426;44.726;10.390;2023-09-07T06:21:06;101077.09;;;22.59;100.00
59608;BME280;45426;44.726;10.390;2023-09-07T06:23:31;101063.97;;;22.88;100.00
59608;BME280;45426;44.726;10.390;2023-09-07T06:25:57;101074.22;;;22.95;100.00
59608;BME280;45426;44.726;10.390;2023-09-07T06:28:22;101077.72;;;23.87;100.00
59608;BME280;45426;44.726;10.390;2023-09-07T06:30:48;101085.88;;;24.09;100.00
59608;BME280;45426;44.726;10.390;2023-09-07T06:33:13;101082.97;;;25.33;100.00
59608;BME280;45426;44.726;10.390;2023-09-07T06:35:39;101079.25;;;25.13;100.00
59608;BME280;45426;44.726;10.390;2023-09-07T06:38:04;101080.31;;;25.23;100.00
59608;BME280;45426;44.726;10.390;2023-09-07T06:40:30;101080.28;;;26.31;100.00
59608;BME280;45426;44.726;10.390;2023-09-07T06:42:55;101085.69;;;28.12;100.00
59608;BME280;45426;44.726;10.390;2023-09-07T06:45:22;101082.78;;;28.90;100.00
59608;BME280;45426;44.726;10.390;2023-09-07T06:47:51;101084.53;;;30.03;100.00
59608;BME280;45426;44.726;10.390;2023-09-07T06:50:17;101087.38;;;32.35;100.00
59608;BME280;45426;44.726;10.390;2023-09-07T06:52:43;101083.91;;;34.68;100.00
59608;BME280;45426;44.726;10.390;2023-09-07T06:55:08;101084.28;;;35.06;100.00
59608;BME280;45426;44.726;10.390;2023-09-07T06:57:34;101097.59;;;38.17;98.86
59608;BME280;45426;44.726;10.390;2023-09-07T07:00:00;101091.16;;;40.09;84.32
59608;BME280;45426;44.726;10.390;2023-09-07T07:02:25;101099.19;;;35.21;100.00
59608;BME280;45426;44.726;10.390;2023-09-07T07:04:51;101101.53;;;38.31;84.91
59608;BME280;45426;44.726;10.390;2023-09-07T07:07:17;101099.06;;;39.35;87.04
59608;BME280;45426;44.726;10.390;2023-09-07T07:09:43;101100.72;;;40.53;75.49
59608;BME280;45426;44.726;10.390;2023-09-07T07:12:09;101104.69;;;36.83;100.00
59608;BME280;45426;44.726;10.390;2023-09-07T07:14:34;101097.88;;;40.94;81.91
59608;BME280;45426;44.726;10.390;2023-09-07T07:16:59;101096.91;;;41.90;73.90
59608;BME280;45426;44.726;10.390;2023-09-07T07:19:27;101098.34;;;42.41;69.61
59608;BME280;45426;44.726;10.390;2023-09-07T07:21:53;101100.47;;;42.73;67.34
59608;BME280;45426;44.726;10.390;2023-09-07T07:24:18;101096.91;;;43.45;65.43
59608;BME280;45426;44.726;10.390;2023-09-07T07:26:44;101099.34;;;43.40;61.54
59608;BME280;45426;44.726;10.390;2023-09-07T07:29:09;101102.00;;;42.74;65.66
59608;BME280;45426;44.726;10.390;2023-09-07T07:31:35;101107.00;;;42.54;65.01
59608;BME280;45426;44.726;10.390;2023-09-07T07:34:00;101100.59;;;42.48;62.37
59608;BME280;45426;44.726;10.390;2023-09-07T07:36:25;101094.78;;;42.35;62.31
59608;BME280;45426;44.726;10.390;2023-09-07T07:38:51;101106.13;;;38.23;71.36
59608;BME280;45426;44.726;10.390;2023-09-07T07:41:16;101099.31;;;38.69;77.03
59608;BME280;45426;44.726;10.390;2023-09-07T07:43:42;101097.19;;;41.43;65.08
59608;BME280;45426;44.726;10.390;2023-09-07T07:46:08;101099.56;;;37.51;86.14
59608;BME280;45426;44.726;10.390;2023-09-07T07:48:33;101106.94;;;38.23;79.90
59608;BME280;45426;44.726;10.390;2023-09-07T07:51:03;101092.13;;;41.30;70.25
59608;BME280;45426;44.726;10.390;2023-09-07T07:53:29;101098.88;;;40.97;69.07
59608;BME280;45426;44.726;10.390;2023-09-07T07:55:55;101099.69;;;41.53;65.78
59608;BME280;45426;44.726;10.390;2023-09-07T07:58:21;101100.06;;;40.30;77.06
59608;BME280;45426;44.726;10.390;2023-09-07T08:00:46;101100.75;;;41.19;68.73
59608;BME280;45426;44.726;10.390;2023-09-07T08:03:13;101099.06;;;41.84;69.76
59608;BME280;45426;44.726;10.390;2023-09-07T08:05:39;101094.91;;;41.85;63.18
59608;BME280;45426;44.726;10.390;2023-09-07T08:08:05;101101.66;;;40.72;68.14
59608;BME280;45426;44.726;10.390;2023-09-07T08:10:37;101095.75;;;40.65;62.97
59608;BME280;45426;44.726;10.390;2023-09-07T08:13:03;101091.41;;;41.74;67.41
59608;BME280;45426;44.726;10.390;2023-09-07T08:15:29;101095.38;;;40.85;70.83
59608;BME280;45426;44.726;10.390;2023-09-07T08:17:56;101101.28;;;37.75;79.58
59608;BME280;45426;44.726;10.390;2023-09-07T08:20:22;101102.13;;;38.58;74.03
59608;BME280;45426;44.726;10.390;2023-09-07T08:22:48;101102.94;;;39.15;78.72
59608;BME280;45426;44.726;10.390;2023-09-07T08:25:13;101098.03;;;38.04;82.22
59608;BME280;45426;44.726;10.390;2023-09-07T08:27:42;101094.16;;;37.96;87.19
59608;BME280;45426;44.726;10.390;2023-09-07T08:30:13;101092.25;;;37.76;88.73
59608;BME280;45426;44.726;10.390;2023-09-07T08:32:41;101094.06;;;38.45;89.62
59608;BME280;45426;44.726;10.390;2023-09-07T08:35:08;101084.34;;;39.31;83.50
59608;BME280;45426;44.726;10.390;2023-09-07T08:37:34;101096.50;;;33.28;100.00
59608;BME280;45426;44.726;10.390;2023-09-07T08:40:00;101092.44;;;31.09;100.00
59608;BME280;45426;44.726;10.390;2023-09-07T08:42:25;101087.09;;;31.74;100.00
59608;BME280;45426;44.726;10.390;2023-09-07T08:44:53;101089.50;;;30.91;100.00
59608;BME280;45426;44.726;10.390;2023-09-07T08:47:24;101094.31;;;29.98;100.00
59608;BME280;45426;44.726;10.390;2023-09-07T08:49:50;101088.31;;;30.09;100.00
59608;BME280;45426;44.726;10.390;2023-09-07T08:52:17;101093.47;;;30.11;100.00
59608;BME280;45426;44.726;10.390;2023-09-07T08:54:43;101095.38;;;28.82;100.00
59608;BME280;45426;44.726;10.390;2023-09-07T08:57:11;101097.31;;;29.14;100.00
59608;BME280;45426;44.726;10.390;2023-09-07T08:59:36;101095.00;;;29.77;100.00
59608;BME280;45426;44.726;10.390;2023-09-07T09:02:02;101097.06;;;28.79;100.00
59608;BME280;45426;44.726;10.390;2023-09-07T09:04:29;101095.19;;;29.95;100.00
59608;BME280;45426;44.726;10.390;2023-09-07T09:06:56;101089.59;;;29.95;100.00
59608;BME280;45426;44.726;10.390;2023-09-07T09:09:22;101084.59;;;30.25;100.00
59608;BME280;45426;44.726;10.390;2023-09-07T09:11:50;101088.94;;;30.26;100.00
59608;BME280;45426;44.726;10.390;2023-09-07T09:14:18;101084.44;;;29.81;100.00
59608;BME280;45426;44.726;10.390;2023-09-07T09:16:51;101087.00;;;29.24;100.00
59608;BME280;45426;44.726;10.390;2023-09-07T09:19:17;101074.63;;;30.11;100.00
59608;BME280;45426;44.726;10.390;2023-09-07T09:21:44;101081.63;;;29.94;100.00
59608;BME280;45426;44.726;10.390;2023-09-07T09:24:11;101082.22;;;30.24;100.00
59608;BME280;45426;44.726;10.390;2023-09-07T09:26:37;101089.69;;;29.53;100.00
59608;BME280;45426;44.726;10.390;2023-09-07T09:29:03;101092.53;;;28.69;100.00
59608;BME280;45426;44.726;10.390;2023-09-07T09:31:29;101081.47;;;30.23;100.00
59608;BME280;45426;44.726;10.390;2023-09-07T09:33:55;101090.84;;;30.29;100.00
59608;BME280;45426;44.726;10.390;2023-09-07T09:36:21;101096.97;;;29.38;100.00
59608;BME280;45426;44.726;10.390;2023-09-07T09:38:48;101095.50;;;29.72;100.00
59608;BME280;45426;44.726;10.390;2023-09-07T09:41:16;101098.22;;;28.36;100.00
59608;BME280;45426;44.726;10.390;2023-09-07T09:43:42;101087.50;;;29.06;100.00
59608;BME280;45426;44.726;10.390;2023-09-07T09:46:09;101084.34;;;28.91;100.00
59608;BME280;45426;44.726;10.390;2023-09-07T09:48:36;101081.69;;;30.16;100.00
59608;BME280;45426;44.726;10.390;2023-09-07T09:51:03;101078.53;;;29.79;100.00
59608;BME280;45426;44.726;10.390;2023-09-07T09:53:29;101075.78;;;30.49;100.00
59608;BME280;45426;44.726;10.390;2023-09-07T09:55:55;101069.09;;;30.33;100.00
59608;BME280;45426;44.726;10.390;2023-09-07T09:58:21;101067.13;;;30.21;100.00
59608;BME280;45426;44.726;10.390;2023-09-07T10:00:49;101055.75;;;30.37;100.00
59608;BME280;45426;44.726;10.390;2023-09-07T10:05:51;101061.56;;;29.95;100.00
59608;BME280;45426;44.726;10.390;2023-09-07T10:08:18;101056.59;;;30.69;100.00
59608;BME280;45426;44.726;10.390;2023-09-07T10:10:47;101051.78;;;30.48;100.00
59608;BME280;45426;44.726;10.390;2023-09-07T10:13:16;101048.53;;;30.71;100.00
59608;BME280;45426;44.726;10.390;2023-09-07T10:15:42;101057.34;;;29.52;100.00
59608;BME280;45426;44.726;10.390;2023-09-07T10:18:11;101049.56;;;30.43;100.00
59608;BME280;45426;44.726;10.390;2023-09-07T10:20:56;101046.97;;;30.48;100.00
59608;BME280;45426;44.726;10.390;2023-09-07T10:23:34;101038.69;;;30.10;100.00
59608;BME280;45426;44.726;10.390;2023-09-07T10:26:00;101042.09;;;29.66;100.00
59608;BME280;45426;44.726;10.390;2023-09-07T10:28:25;101040.69;;;30.09;100.00
59608;BME280;45426;44.726;10.390;2023-09-07T10:31:18;101026.88;;;30.50;100.00
59608;BME280;45426;44.726;10.390;2023-09-07T10:33:44;101038.56;;;30.70;100.00
59608;BME280;45426;44.726;10.390;2023-09-07T10:36:29;101040.56;;;31.23;100.00
59608;BME280;45426;44.726;10.390;2023-09-07T10:38:55;101031.72;;;30.49;100.00
59608;BME280;45426;44.726;10.390;2023-09-07T10:41:21;101036.06;;;31.26;100.00
59608;BME280;45426;44.726;10.390;2023-09-07T10:43:51;101022.69;;;30.76;100.00
59608;BME280;45426;44.726;10.390;2023-09-07T10:46:21;101024.00;;;30.41;100.00
59608;BME280;45426;44.726;10.390;2023-09-07T10:48:51;101025.06;;;29.86;100.00
59608;BME280;45426;44.726;10.390;2023-09-07T10:51:18;101017.28;;;29.55;100.00
59608;BME280;45426;44.726;10.390;2023-09-07T10:53:43;101017.56;;;30.53;100.00
59608;BME280;45426;44.726;10.390;2023-09-07T10:56:09;101006.66;;;31.08;100.00
59608;BME280;45426;44.726;10.390;2023-09-07T10:58:36;101009.72;;;30.92;100.00
59608;BME280;45426;44.726;10.390;2023-09-07T11:01:05;101010.00;;;30.41;100.00
59608;BME280;45426;44.726;10.390;2023-09-07T11:03:31;101014.31;;;30.86;100.00
59608;BME280;45426;44.726;10.390;2023-09-07T11:06:04;101013.84;;;29.99;100.00
59608;BME280;45426;44.726;10.390;2023-09-07T11:08:30;101008.81;;;28.78;100.00
59608;BME280;45426;44.726;10.390;2023-09-07T11:10:56;101009.44;;;30.99;100.00
59608;BME280;45426;44.726;10.390;2023-09-07T11:13:25;101003.16;;;31.26;100.00
59608;BME280;45426;44.726;10.390;2023-09-07T11:15:56;100993.75;;;31.61;100.00
59608;BME280;45426;44.726;10.390;2023-09-07T11:18:23;100995.88;;;30.98;100.00
59608;BME280;45426;44.726;10.390;2023-09-07T11:20:50;100989.91;;;31.27;100.00
59608;BME280;45426;44.726;10.390;2023-09-07T11:23:20;100995.94;;;30.85;100.00
59608;BME280;45426;44.726;10.390;2023-09-07T11:25:47;100979.06;;;31.47;100.00
59608;BME280;45426;44.726;10.390;2023-09-07T11:28:15;100979.34;;;31.40;100.00
59608;BME280;45426;44.726;10.390;2023-09-07T11:30:54;100981.28;;;31.52;100.00
59608;BME280;45426;44.726;10.390;2023-09-07T11:33:21;100970.84;;;31.12;100.00
59608;BME280;45426;44.726;10.390;2023-09-07T11:35:47;100976.53;;;30.90;100.00
59608;BME280;45426;44.726;10.390;2023-09-07T11:38:13;100967.69;;;31.51;100.00
59608;BME280;45426;44.726;10.390;2023-09-07T11:40:39;100958.22;;;31.67;100.00
59608;BME280;45426;44.726;10.390;2023-09-07T11:43:04;100963.88;;;31.26;100.00
59608;BME280;45426;44.726;10.390;2023-09-07T11:45:30;100964.88;;;30.70;100.00
59608;BME280;45426;44.726;10.390;2023-09-07T11:47:57;100963.84;;;31.85;100.00
59608;BME280;45426;44.726;10.390;2023-09-07T11:50:24;100946.66;;;31.74;100.00
59608;BME280;45426;44.726;10.390;2023-09-07T11:52:50;100955.03;;;31.46;100.00
59608;BME280;45426;44.726;10.390;2023-09-07T11:55:16;100957.78;;;30.12;100.00
59608;BME280;45426;44.726;10.390;2023-09-07T11:57:41;100965.84;;;29.75;100.00
59608;BME280;45426;44.726;10.390;2023-09-07T12:00:08;100949.19;;;31.13;100.00
59608;BME280;45426;44.726;10.390;2023-09-07T12:02:38;100953.22;;;31.71;100.00
59608;BME280;45426;44.726;10.390;2023-09-07T12:05:05;100946.56;;;30.87;100.00
59608;BME280;45426;44.726;10.390;2023-09-07T12:07:32;100952.16;;;30.87;100.00
59608;BME280;45426;44.726;10.390;2023-09-07T12:09:57;100959.13;;;30.73;100.00
59608;BME280;45426;44.726;10.390;2023-09-07T12:12:23;100947.41;;;29.52;100.00
59608;BME280;45426;44.726;10.390;2023-09-07T12:14:48;100939.59;;;30.92;100.00
59608;BME280;45426;44.726;10.390;2023-09-07T12:17:14;100935.94;;;31.13;100.00
59608;BME280;45426;44.726;10.390;2023-09-07T12:19:39;100934.94;;;30.98;100.00
59608;BME280;45426;44.726;10.390;2023-09-07T12:22:07;100928.59;;;31.07;100.00
59608;BME280;45426;44.726;10.390;2023-09-07T12:24:33;100942.09;;;30.99;100.00
59608;BME280;45426;44.726;10.390;2023-09-07T12:26:58;100941.75;;;30.34;100.00
59608;BME280;45426;44.726;10.390;2023-09-07T12:29:25;100930.56;;;30.97;100.00